Time;durP1;ratioP1;P1;durP2;ratioP2;P2;SDS_P1;SDS_P2;PMS_P1;PMS_P2;Temp;Humidity;BMP_temperature;BMP_pressure;BME280_temperature;BME280_humidity;BME280_pressure;Samples;Min_cycle;Max_cycle;Signal;HPM_P1;HPM_P2
2022/07/02 00:01:37;;;;;;;5.80;3.83;;;;;;;;;;1692658;84;21206;-72
2022/07/02 00:04:03;;;;;;;6.35;4.30;;;;;;;;;;1693148;85;21039;-72
2022/07/02 00:06:30;;;;;;;8.70;3.98;;;;;;;;;;1715046;83;21075;-72
2022/07/02 00:08:56;;;;;;;4.72;3.70;;;;;;;;;;1699630;83;21015;-72
2022/07/02 00:11:23;;;;;;;5.70;4.08;;;;;;;;;;1702210;83;21064;-72
2022/07/02 00:13:49;;;;;;;8.00;5.53;;;;;;;;;;1695377;85;21034;-72
2022/07/02 00:16:15;;;;;;;7.58;5.30;;;;;;;;;;1695688;85;21078;-72
2022/07/02 00:18:41;;;;;;;10.18;6.00;;;;;;;;;;1718729;83;21040;-70
2022/07/02 00:21:07;;;;;;;5.95;4.47;;;;;;;;;;1693747;85;22098;-70
2022/07/02 00:23:33;;;;;;;7.60;5.03;;;;;;;;;;1693471;84;21079;-70
2022/07/02 00:26:04;;;;;;;7.37;4.60;;;;;;;;;;1708290;83;21052;-70
2022/07/02 00:28:30;;;;;;;8.60;5.05;;;;;;;;;;1701003;83;21035;-70
2022/07/02 00:30:57;;;;;;;8.83;5.35;;;;;;;;;;1725454;82;21095;-71
2022/07/02 00:33:23;;;;;;;8.28;5.78;;;;;;;;;;1714901;82;21036;-71
2022/07/02 00:35:49;;;;;;;8.43;4.80;;;;;;;;;;1676334;85;21504;-70
2022/07/02 00:38:15;;;;;;;8.08;4.90;;;;;;;;;;1683826;85;21039;-71
2022/07/02 00:40:43;;;;;;;8.55;5.00;;;;;;;;;;1677753;85;21609;-69
2022/07/02 00:43:09;;;;;;;7.53;5.00;;;;;;;;;;1732585;82;20977;-71
2022/07/02 00:45:35;;;;;;;6.75;4.97;;;;;;;;;;1726220;82;21061;-71
2022/07/02 00:48:02;;;;;;;8.03;5.70;;;;;;;;;;1723407;82;21610;-71
2022/07/02 00:50:28;;;;;;;8.38;5.72;;;;;;;;;;1716535;82;21132;-70
2022/07/02 00:52:54;;;;;;;8.70;4.70;;;;;;;;;;1723397;82;21011;-70
2022/07/02 00:55:21;;;;;;;6.87;4.90;;;;;;;;;;1734811;82;21048;-70
2022/07/02 00:57:48;;;;;;;8.55;5.37;;;;;;;;;;1753347;80;21535;-71
2022/07/02 01:00:14;;;;;;;6.83;4.70;;;;;;;;;;1742433;81;21024;-70
2022/07/02 01:05:30;;;;;;;6.72;4.87;;;;;;;;;;1673093;83;21164;-70
2022/07/02 01:10:44;;;;;;;6.67;4.75;;;;;;;;;;1734830;81;22020;-70
2022/07/02 01:13:10;;;;;;;7.62;4.95;;;;;;;;;;1739005;81;21083;-70
2022/07/02 01:15:37;;;;;;;7.28;5.15;;;;;;;;;;1741349;82;21609;-71
2022/07/02 01:18:04;;;;;;;8.65;5.33;;;;;;;;;;1737982;82;21012;-70
2022/07/02 01:20:30;;;;;;;7.80;5.10;;;;;;;;;;1728081;81;21050;-71
2022/07/02 01:22:56;;;;;;;6.83;4.78;;;;;;;;;;1718001;81;21023;-70
2022/07/02 01:25:24;;;;;;;6.15;5.03;;;;;;;;;;1729617;82;21046;-71
2022/07/02 01:27:50;;;;;;;6.55;4.78;;;;;;;;;;1740058;82;21022;-70
2022/07/02 01:30:16;;;;;;;6.95;4.70;;;;;;;;;;1739809;81;21084;-71
2022/07/02 01:32:42;;;;;;;6.50;4.10;;;;;;;;;;1727580;82;21099;-70
2022/07/02 01:35:09;;;;;;;5.00;3.92;;;;;;;;;;1740430;82;21015;-70
2022/07/02 01:37:36;;;;;;;5.25;4.10;;;;;;;;;;1730972;82;21118;-70
2022/07/02 01:40:03;;;;;;;6.47;3.80;;;;;;;;;;1727603;83;21055;-71
2022/07/02 01:42:29;;;;;;;5.75;3.55;;;;;;;;;;1739325;81;21095;-71
2022/07/02 01:44:55;;;;;;;5.12;3.65;;;;;;;;;;1709971;81;21071;-71
2022/07/02 01:47:21;;;;;;;5.67;3.90;;;;;;;;;;1759234;81;21007;-70
2022/07/02 01:49:47;;;;;;;4.67;3.50;;;;;;;;;;1760211;81;21075;-71
2022/07/02 01:52:14;;;;;;;10.15;4.05;;;;;;;;;;1724878;81;21016;-70
2022/07/02 01:54:42;;;;;;;5.05;3.87;;;;;;;;;;1756651;80;21060;-72
2022/07/02 01:57:08;;;;;;;4.22;3.65;;;;;;;;;;1762626;80;21635;-70
2022/07/02 01:59:34;;;;;;;5.65;3.62;;;;;;;;;;1751956;82;20992;-71
2022/07/02 02:02:04;;;;;;;5.35;3.40;;;;;;;;;;1758373;80;21119;-70
2022/07/02 02:04:31;;;;;;;6.97;3.60;;;;;;;;;;1791653;79;21100;-71
2022/07/02 02:06:57;;;;;;;4.95;3.75;;;;;;;;;;1794023;78;21039;-70
2022/07/02 02:09:23;;;;;;;4.58;3.60;;;;;;;;;;1827538;78;21499;-71
2022/07/02 02:11:49;;;;;;;5.60;3.58;;;;;;;;;;1814680;78;21000;-71
2022/07/02 02:14:16;;;;;;;5.15;3.42;;;;;;;;;;1791930;78;21064;-71
2022/07/02 02:16:42;;;;;;;6.62;3.90;;;;;;;;;;1792610;80;20988;-71
2022/07/02 02:19:10;;;;;;;7.80;3.50;;;;;;;;;;1797477;78;21020;-71
2022/07/02 02:21:36;;;;;;;8.08;3.65;;;;;;;;;;1792929;79;21027;-71
2022/07/02 02:24:02;;;;;;;4.60;3.47;;;;;;;;;;1793967;78;20972;-71
2022/07/02 02:26:28;;;;;;;6.28;3.20;;;;;;;;;;1790672;80;21071;-70
2022/07/02 02:28:55;;;;;;;6.40;3.60;;;;;;;;;;1752785;82;21067;-69
2022/07/02 02:31:22;;;;;;;4.85;3.22;;;;;;;;;;1756780;80;21506;-70
2022/07/02 02:33:48;;;;;;;4.20;3.17;;;;;;;;;;1807406;78;20989;-71
2022/07/02 02:36:14;;;;;;;6.03;3.58;;;;;;;;;;1761542;81;21047;-70
2022/07/02 02:38:39;;;;;;;4.90;3.83;;;;;;;;;;1776764;78;20972;-69
2022/07/02 02:41:06;;;;;;;4.03;3.50;;;;;;;;;;1810445;78;21077;-70
2022/07/02 02:43:33;;;;;;;7.03;3.72;;;;;;;;;;1799470;78;21479;-71
2022/07/02 02:45:59;;;;;;;4.65;3.65;;;;;;;;;;1792681;80;21019;-70
2022/07/02 02:48:27;;;;;;;4.97;3.30;;;;;;;;;;1804342;78;21016;-72
2022/07/02 02:50:53;;;;;;;5.60;3.75;;;;;;;;;;1807314;78;21481;-70
2022/07/02 02:53:21;;;;;;;5.47;3.37;;;;;;;;;;1812365;78;21029;-70
2022/07/02 02:55:47;;;;;;;5.42;2.95;;;;;;;;;;1800720;79;21613;-70
2022/07/02 02:58:13;;;;;;;4.78;3.30;;;;;;;;;;1816310;78;21503;-69
2022/07/02 03:00:39;;;;;;;5.40;3.98;;;;;;;;;;1806294;78;21004;-69
2022/07/02 03:03:07;;;;;;;7.15;4.50;;;;;;;;;;1759836;80;22259;-70
2022/07/02 03:05:34;;;;;;;4.40;3.75;;;;;;;;;;1803100;78;21089;-70
2022/07/02 03:08:00;;;;;;;5.15;3.62;;;;;;;;;;1792345;78;21075;-70
2022/07/02 03:10:28;;;;;;;4.97;3.60;;;;;;;;;;1753506;82;21060;-71
2022/07/02 03:12:55;;;;;;;4.80;3.30;;;;;;;;;;1759806;80;21074;-70
2022/07/02 03:15:22;;;;;;;4.25;3.65;;;;;;;;;;1803151;78;20984;-72
2022/07/02 03:17:48;;;;;;;5.90;3.42;;;;;;;;;;1815991;78;21412;-71
2022/07/02 03:20:14;;;;;;;6.10;3.62;;;;;;;;;;1795196;78;21538;-71
2022/07/02 03:22:40;;;;;;;5.60;4.15;;;;;;;;;;1792310;80;21023;-71
2022/07/02 03:25:08;;;;;;;6.12;3.80;;;;;;;;;;1806599;78;21813;-71
2022/07/02 03:27:34;;;;;;;4.95;3.40;;;;;;;;;;1802429;78;20980;-71
2022/07/02 03:30:00;;;;;;;5.92;3.80;;;;;;;;;;1822217;78;21571;-71
2022/07/02 03:32:29;;;;;;;6.85;3.42;;;;;;;;;;1790637;78;21054;-71
2022/07/02 03:34:55;;;;;;;5.72;3.90;;;;;;;;;;1797149;78;21496;-71
2022/07/02 03:37:25;;;;;;;5.80;3.35;;;;;;;;;;1807039;78;21567;-71
2022/07/02 03:39:49;;;;;;;5.40;3.90;;;;;;;;;;1808378;79;21029;-70
2022/07/02 03:42:15;;;;;;;4.50;3.65;;;;;;;;;;1807968;78;21512;-71
2022/07/02 03:44:41;;;;;;;4.30;3.12;;;;;;;;;;1811117;78;21083;-71
2022/07/02 03:47:08;;;;;;;4.65;4.00;;;;;;;;;;1807748;78;21087;-70
2022/07/02 03:49:35;;;;;;;4.72;3.67;;;;;;;;;;1801915;78;21024;-71
2022/07/02 03:52:02;;;;;;;5.17;3.60;;;;;;;;;;1798449;78;20989;-72
2022/07/02 03:54:28;;;;;;;5.55;3.75;;;;;;;;;;1818792;78;21602;-72
2022/07/02 03:56:54;;;;;;;5.37;3.98;;;;;;;;;;1813592;78;20988;-72
2022/07/02 03:59:20;;;;;;;4.55;3.50;;;;;;;;;;1783895;80;20967;-72
2022/07/02 04:01:46;;;;;;;5.10;3.80;;;;;;;;;;1802390;78;21072;-71
2022/07/02 04:04:12;;;;;;;4.65;3.80;;;;;;;;;;1784438;78;21024;-72
2022/07/02 04:06:38;;;;;;;6.25;3.77;;;;;;;;;;1776604;80;20985;-70
2022/07/02 04:09:04;;;;;;;4.83;3.98;;;;;;;;;;1805471;79;20992;-70
2022/07/02 04:11:32;;;;;;;5.95;3.95;;;;;;;;;;1800360;79;21499;-72
2022/07/02 04:13:58;;;;;;;4.30;3.50;;;;;;;;;;1756189;80;21001;-69
2022/07/02 04:16:24;;;;;;;5.53;4.03;;;;;;;;;;1801971;79;21440;-70
2022/07/02 04:18:53;;;;;;;6.00;4.67;;;;;;;;;;1803958;79;20997;-70
2022/07/02 04:21:19;;;;;;;4.50;3.52;;;;;;;;;;1801660;79;21036;-68
2022/07/02 04:23:44;;;;;;;4.92;3.40;;;;;;;;;;1797594;78;21246;-68
2022/07/02 04:26:10;;;;;;;5.25;3.40;;;;;;;;;;1814066;79;21282;-68
2022/07/02 04:28:37;;;;;;;4.30;3.60;;;;;;;;;;1801651;79;21068;-68
2022/07/02 04:31:04;;;;;;;4.62;3.55;;;;;;;;;;1785776;79;20977;-69
2022/07/02 04:33:32;;;;;;;4.78;3.55;;;;;;;;;;1782698;79;21009;-70
2022/07/02 04:35:58;;;;;;;4.67;3.72;;;;;;;;;;1802281;78;20967;-69
2022/07/02 04:38:24;;;;;;;4.50;3.62;;;;;;;;;;1788524;79;22219;-69
2022/07/02 04:40:50;;;;;;;7.67;3.62;;;;;;;;;;1779807;79;20976;-70
2022/07/02 04:43:16;;;;;;;5.60;3.17;;;;;;;;;;1803259;79;21493;-70
2022/07/02 04:45:42;;;;;;;7.67;3.40;;;;;;;;;;1793862;79;21020;-70
2022/07/02 04:48:08;;;;;;;5.83;3.92;;;;;;;;;;1794572;79;20969;-70
2022/07/02 04:50:35;;;;;;;5.90;3.58;;;;;;;;;;1799061;79;21083;-70
2022/07/02 04:53:01;;;;;;;5.33;3.90;;;;;;;;;;1783211;79;21511;-71
2022/07/02 04:55:27;;;;;;;5.45;3.52;;;;;;;;;;1786041;79;21040;-70
2022/07/02 04:57:53;;;;;;;4.55;3.40;;;;;;;;;;1787802;79;21543;-70
2022/07/02 05:00:19;;;;;;;4.90;3.17;;;;;;;;;;1779980;79;21488;-69
2022/07/02 05:02:46;;;;;;;6.35;4.00;;;;;;;;;;1752856;80;21088;-70
2022/07/02 05:05:12;;;;;;;5.65;3.55;;;;;;;;;;1755483;80;21036;-70
2022/07/02 05:07:38;;;;;;;7.22;3.90;;;;;;;;;;1746434;80;21021;-72
2022/07/02 05:10:06;;;;;;;6.05;4.05;;;;;;;;;;1749048;80;21060;-71
2022/07/02 05:12:32;;;;;;;4.90;3.55;;;;;;;;;;1766136;80;21035;-71
2022/07/02 05:15:00;;;;;;;4.80;3.83;;;;;;;;;;1755396;81;21023;-71
2022/07/02 05:17:25;;;;;;;5.30;3.65;;;;;;;;;;1744649;81;20973;-71
2022/07/02 05:19:51;;;;;;;6.08;3.22;;;;;;;;;;1747470;81;21046;-71
2022/07/02 05:22:17;;;;;;;5.47;3.58;;;;;;;;;;1750437;80;21602;-70
2022/07/02 05:24:44;;;;;;;6.12;4.10;;;;;;;;;;1764828;80;20952;-71
2022/07/02 05:27:10;;;;;;;5.92;3.30;;;;;;;;;;1747632;80;21023;-72
2022/07/02 05:29:36;;;;;;;4.47;3.40;;;;;;;;;;1753462;80;21004;-71
2022/07/02 05:32:02;;;;;;;4.65;3.35;;;;;;;;;;1752973;80;21521;-72
2022/07/02 05:34:30;;;;;;;4.90;3.55;;;;;;;;;;1749456;80;21547;-72
2022/07/02 05:36:56;;;;;;;4.12;3.33;;;;;;;;;;1747748;82;20999;-73
2022/07/02 05:39:22;;;;;;;6.87;3.77;;;;;;;;;;1746905;80;21004;-72
2022/07/02 05:41:48;;;;;;;5.17;3.80;;;;;;;;;;1759159;80;20983;-72
2022/07/02 05:44:14;;;;;;;7.85;6.37;;;;;;;;;;1752489;80;20980;-73
2022/07/02 05:46:43;;;;;;;6.92;3.77;;;;;;;;;;1778539;80;21047;-72
2022/07/02 05:49:09;;;;;;;4.50;3.40;;;;;;;;;;1738308;80;21098;-73
2022/07/02 05:51:35;;;;;;;6.15;3.67;;;;;;;;;;1748293;80;20993;-71
2022/07/02 05:54:01;;;;;;;5.10;3.75;;;;;;;;;;1749220;80;21057;-72
2022/07/02 05:56:27;;;;;;;4.87;3.33;;;;;;;;;;1746490;80;21043;-72
2022/07/02 05:58:53;;;;;;;3.60;3.12;;;;;;;;;;1763925;80;21011;-73
2022/07/02 06:01:19;;;;;;;6.25;3.60;;;;;;;;;;1755836;80;21145;-72
2022/07/02 06:03:46;;;;;;;5.50;3.42;;;;;;;;;;1767171;80;21102;-72
2022/07/02 06:08:57;;;;;;;3.55;3.02;;;;;;;;;;1808152;78;21067;-72
2022/07/02 06:11:23;;;;;;;5.33;3.40;;;;;;;;;;1808455;78;21625;-72
2022/07/02 06:13:49;;;;;;;14.55;4.17;;;;;;;;;;1796159;78;21276;-72
2022/07/02 06:16:15;;;;;;;5.20;3.92;;;;;;;;;;1799063;79;21521;-73
2022/07/02 06:18:41;;;;;;;5.08;3.50;;;;;;;;;;1791870;78;21745;-72
2022/07/02 06:21:07;;;;;;;6.30;5.37;;;;;;;;;;1790574;78;21018;-71
2022/07/02 06:23:33;;;;;;;6.55;5.78;;;;;;;;;;1796156;78;20997;-73
2022/07/02 06:25:59;;;;;;;6.28;4.55;;;;;;;;;;1755587;80;21742;-73
2022/07/02 06:28:25;;;;;;;4.40;3.50;;;;;;;;;;1742400;81;21562;-69
2022/07/02 06:30:51;;;;;;;4.37;3.45;;;;;;;;;;1740272;82;21076;-74
2022/07/02 06:33:17;;;;;;;8.55;3.55;;;;;;;;;;1736458;81;21056;-74
2022/07/02 06:35:44;;;;;;;4.10;3.10;;;;;;;;;;1749628;80;21535;-74
2022/07/02 06:38:11;;;;;;;4.97;3.62;;;;;;;;;;1783835;80;20985;-72
2022/07/02 06:40:37;;;;;;;4.47;3.37;;;;;;;;;;1760113;80;21063;-72
2022/07/02 06:43:03;;;;;;;4.85;3.70;;;;;;;;;;1750116;80;21524;-73
2022/07/02 06:47:18;;;;;;;12.75;4.35;;;;;;;;;;1790022;79;22900;-73
2022/07/02 06:49:44;;;;;;;8.55;4.17;;;;;;;;;;1750764;80;21076;-74
2022/07/02 06:52:11;;;;;;;8.35;4.15;;;;;;;;;;1760018;80;21103;-74
2022/07/02 06:54:37;;;;;;;7.25;3.80;;;;;;;;;;1760438;80;21543;-74
2022/07/02 06:57:03;;;;;;;5.40;3.35;;;;;;;;;;1760503;80;21012;-74
2022/07/02 06:59:29;;;;;;;6.20;3.45;;;;;;;;;;1761004;81;21067;-73
2022/07/02 07:01:55;;;;;;;6.10;3.27;;;;;;;;;;1760612;80;21068;-73
2022/07/02 07:04:23;;;;;;;4.30;3.67;;;;;;;;;;1743251;82;21016;-74
2022/07/02 07:06:52;;;;;;;4.50;3.45;;;;;;;;;;1735267;82;20980;-75
2022/07/02 07:09:18;;;;;;;5.97;3.75;;;;;;;;;;1745812;82;21503;-74
2022/07/02 07:11:44;;;;;;;6.62;3.58;;;;;;;;;;1737328;82;21075;-73
2022/07/02 07:14:11;;;;;;;5.42;3.40;;;;;;;;;;1746942;82;21119;-73
2022/07/02 07:16:37;;;;;;;4.78;3.22;;;;;;;;;;1741381;82;21018;-74
2022/07/02 07:19:07;;;;;;;8.13;3.22;;;;;;;;;;1753354;82;21072;-72
2022/07/02 07:21:34;;;;;;;6.42;3.12;;;;;;;;;;1749698;82;21044;-75
2022/07/02 07:24:00;;;;;;;7.50;3.08;;;;;;;;;;1746049;82;21064;-74
2022/07/02 07:26:26;;;;;;;4.10;3.08;;;;;;;;;;1736383;82;21077;-74
2022/07/02 07:28:52;;;;;;;4.12;3.00;;;;;;;;;;1736899;82;21001;-74
2022/07/02 07:31:20;;;;;;;6.30;3.20;;;;;;;;;;1738682;82;21064;-74
2022/07/02 07:33:46;;;;;;;5.50;3.35;;;;;;;;;;1729160;82;21081;-72
2022/07/02 07:36:12;;;;;;;4.95;3.20;;;;;;;;;;1747824;82;21008;-73
2022/07/02 07:38:39;;;;;;;5.70;3.47;;;;;;;;;;1744391;82;21084;-75
2022/07/02 07:41:07;;;;;;;5.53;3.05;;;;;;;;;;1738759;82;21051;-69
2022/07/02 07:43:33;;;;;;;5.83;3.10;;;;;;;;;;1723690;82;21122;-71
2022/07/02 07:45:59;;;;;;;3.98;2.80;;;;;;;;;;1747092;81;20997;-69
2022/07/02 07:48:25;;;;;;;5.10;3.30;;;;;;;;;;1732884;81;21037;-70
2022/07/02 07:50:52;;;;;;;4.50;3.40;;;;;;;;;;1738984;82;21064;-70
2022/07/02 07:53:17;;;;;;;10.68;7.20;;;;;;;;;;1739065;80;20993;-70
2022/07/02 07:55:43;;;;;;;6.42;4.30;;;;;;;;;;1740995;82;21033;-69
2022/07/02 07:58:10;;;;;;;9.50;4.72;;;;;;;;;;1734450;82;21032;-71
2022/07/02 08:00:36;;;;;;;5.03;3.40;;;;;;;;;;1735871;82;21488;-72
2022/07/02 08:03:02;;;;;;;5.20;3.42;;;;;;;;;;1739291;82;21096;-70
2022/07/02 08:05:28;;;;;;;3.98;3.00;;;;;;;;;;1735070;82;21029;-70
2022/07/02 08:07:54;;;;;;;5.95;2.83;;;;;;;;;;1728772;82;21001;-70
2022/07/02 08:10:20;;;;;;;4.30;3.05;;;;;;;;;;1750830;82;21047;-69
2022/07/02 08:12:48;;;;;;;5.47;3.02;;;;;;;;;;1735090;82;21484;-67
2022/07/02 08:15:14;;;;;;;4.20;2.90;;;;;;;;;;1745599;82;21071;-73
2022/07/02 08:17:41;;;;;;;3.90;2.77;;;;;;;;;;1746477;82;21017;-70
2022/07/02 08:20:07;;;;;;;4.30;2.95;;;;;;;;;;1735765;82;20977;-70
2022/07/02 08:22:35;;;;;;;3.40;2.70;;;;;;;;;;1731352;82;21009;-69
2022/07/02 08:25:01;;;;;;;4.00;2.90;;;;;;;;;;1737585;81;21005;-72
2022/07/02 08:27:28;;;;;;;5.03;2.70;;;;;;;;;;1752967;81;21003;-73
2022/07/02 08:29:53;;;;;;;4.03;2.72;;;;;;;;;;1753990;82;21544;-73
2022/07/02 08:32:20;;;;;;;5.10;3.00;;;;;;;;;;1753578;82;21072;-73
2022/07/02 08:34:47;;;;;;;5.05;2.90;;;;;;;;;;1753826;81;21011;-73
2022/07/02 08:37:13;;;;;;;5.35;2.92;;;;;;;;;;1753810;81;21040;-73
2022/07/02 08:39:40;;;;;;;7.25;2.90;;;;;;;;;;1753243;82;21563;-73
2022/07/02 08:42:06;;;;;;;3.10;2.80;;;;;;;;;;1753011;81;21017;-72
2022/07/02 08:44:32;;;;;;;4.28;2.92;;;;;;;;;;1753697;81;20992;-72
2022/07/02 08:46:59;;;;;;;3.60;2.70;;;;;;;;;;1744354;81;21053;-72
2022/07/02 08:49:26;;;;;;;5.55;3.02;;;;;;;;;;1739434;82;21053;-73
2022/07/02 08:52:02;;;;;;;5.30;2.70;;;;;;;;;;1739498;82;21025;-73
2022/07/02 08:54:30;;;;;;;6.58;3.10;;;;;;;;;;1739625;82;21037;-73
2022/07/02 08:56:56;;;;;;;5.15;2.85;;;;;;;;;;1717208;82;21013;-73
2022/07/02 08:59:23;;;;;;;3.83;3.20;;;;;;;;;;1710240;84;21034;-72
2022/07/02 09:01:49;;;;;;;6.33;2.98;;;;;;;;;;1709818;84;21140;-73
2022/07/02 09:04:15;;;;;;;4.75;3.12;;;;;;;;;;1710244;84;21600;-72
2022/07/02 09:06:41;;;;;;;7.28;3.15;;;;;;;;;;1709883;84;21084;-72
2022/07/02 09:09:08;;;;;;;5.42;3.30;;;;;;;;;;1711516;82;21607;-73
2022/07/02 09:11:34;;;;;;;9.00;3.27;;;;;;;;;;1739577;82;21021;-72
2022/07/02 09:14:00;;;;;;;4.80;3.37;;;;;;;;;;1739528;82;21005;-72
2022/07/02 09:16:26;;;;;;;3.70;2.75;;;;;;;;;;1739542;82;21072;-73
2022/07/02 09:18:52;;;;;;;5.03;3.00;;;;;;;;;;1739732;82;21485;-72
2022/07/02 09:21:18;;;;;;;6.53;3.33;;;;;;;;;;1739841;82;21081;-73
2022/07/02 09:23:46;;;;;;;3.65;2.77;;;;;;;;;;1739131;82;21060;-72
2022/07/02 09:26:21;;;;;;;6.50;2.75;;;;;;;;;;1739529;82;21037;-73
2022/07/02 09:29:01;;;;;;;5.00;2.98;;;;;;;;;;1739559;82;21556;-73
2022/07/02 09:31:27;;;;;;;8.18;3.15;;;;;;;;;;1739495;82;21067;-73
2022/07/02 09:33:54;;;;;;;5.05;2.83;;;;;;;;;;1739295;82;21072;-72
2022/07/02 09:36:21;;;;;;;4.78;2.70;;;;;;;;;;1739501;82;21509;-71
2022/07/02 09:38:49;;;;;;;3.80;3.00;;;;;;;;;;1727968;82;21056;-71
2022/07/02 09:41:18;;;;;;;3.52;2.70;;;;;;;;;;1676005;85;21083;-72
2022/07/02 09:43:44;;;;;;;4.75;3.08;;;;;;;;;;1710252;84;21021;-72
2022/07/02 09:46:14;;;;;;;7.45;3.02;;;;;;;;;;1711570;83;21037;-72
2022/07/02 09:48:41;;;;;;;6.00;2.62;;;;;;;;;;1718316;83;21068;-72
2022/07/02 09:51:07;;;;;;;6.15;3.10;;;;;;;;;;1718178;83;21028;-73
2022/07/02 09:53:33;;;;;;;4.05;2.95;;;;;;;;;;1722947;82;21037;-72
2022/07/02 09:56:01;;;;;;;3.42;2.62;;;;;;;;;;1718295;83;21048;-72
2022/07/02 09:58:28;;;;;;;4.10;2.67;;;;;;;;;;1690726;83;21033;-71
2022/07/02 10:00:54;;;;;;;4.37;2.77;;;;;;;;;;1718176;83;21008;-72
2022/07/02 10:03:21;;;;;;;3.65;2.50;;;;;;;;;;1718086;83;21080;-72
2022/07/02 10:05:52;;;;;;;4.22;2.80;;;;;;;;;;1717889;83;22231;-72
2022/07/02 10:08:18;;;;;;;5.20;2.70;;;;;;;;;;1737081;82;21060;-72
2022/07/02 10:10:44;;;;;;;4.37;2.85;;;;;;;;;;1747997;82;20998;-73
2022/07/02 10:13:11;;;;;;;6.92;2.30;;;;;;;;;;1744122;82;21539;-74
2022/07/02 10:15:39;;;;;;;3.70;2.67;;;;;;;;;;1747613;82;21048;-74
2022/07/02 10:18:06;;;;;;;4.53;2.65;;;;;;;;;;1747262;82;21103;-73
2022/07/02 10:20:32;;;;;;;3.50;2.60;;;;;;;;;;1747628;82;21067;-72
2022/07/02 10:23:03;;;;;;;3.72;2.45;;;;;;;;;;1747814;82;21009;-73
2022/07/02 10:25:29;;;;;;;3.30;2.62;;;;;;;;;;1746412;82;21018;-71
2022/07/02 10:27:55;;;;;;;3.75;2.60;;;;;;;;;;1746893;82;21013;-72
2022/07/02 10:30:31;;;;;;;5.60;2.90;;;;;;;;;;1716154;82;21018;-72
2022/07/02 10:32:59;;;;;;;3.90;2.45;;;;;;;;;;1717474;82;21056;-72
2022/07/02 10:35:26;;;;;;;3.85;2.72;;;;;;;;;;1711969;84;21032;-72
2022/07/02 10:37:58;;;;;;;3.62;2.65;;;;;;;;;;1712085;84;21071;-72
2022/07/02 10:40:24;;;;;;;3.67;2.70;;;;;;;;;;1712300;84;21064;-70
2022/07/02 10:42:51;;;;;;;4.25;2.60;;;;;;;;;;1711905;83;21040;-72
2022/07/02 10:45:21;;;;;;;4.83;2.90;;;;;;;;;;1720686;82;21096;-73
2022/07/02 10:47:58;;;;;;;4.87;2.60;;;;;;;;;;1712145;83;21563;-72
2022/07/02 10:50:27;;;;;;;4.72;2.62;;;;;;;;;;1710254;84;21116;-72
2022/07/02 10:52:53;;;;;;;3.83;3.02;;;;;;;;;;1710130;84;21018;-73
2022/07/02 10:55:28;;;;;;;5.12;2.90;;;;;;;;;;1712187;82;21056;-71
2022/07/02 10:58:00;;;;;;;3.58;2.77;;;;;;;;;;1727899;82;20986;-71
2022/07/02 11:00:27;;;;;;;3.72;2.85;;;;;;;;;;1723485;82;21014;-72
2022/07/02 11:02:57;;;;;;;4.85;3.08;;;;;;;;;;1711656;82;21159;-75
2022/07/02 11:05:26;;;;;;;4.45;3.33;;;;;;;;;;1713795;82;21072;-74
2022/07/02 11:07:54;;;;;;;7.85;3.58;;;;;;;;;;1721793;82;21092;-73
2022/07/02 11:10:26;;;;;;;14.90;4.20;;;;;;;;;;1734246;82;21136;-76
2022/07/02 11:12:57;;;;;;;5.85;2.92;;;;;;;;;;1724902;82;21076;-73
2022/07/02 11:15:28;;;;;;;5.95;3.10;;;;;;;;;;1715239;82;21014;-74
2022/07/02 11:17:54;;;;;;;3.55;2.90;;;;;;;;;;1723357;82;21062;-75
2022/07/02 11:20:27;;;;;;;4.08;2.60;;;;;;;;;;1735642;82;21045;-74
2022/07/02 11:22:53;;;;;;;3.55;2.62;;;;;;;;;;1733140;82;21001;-74
2022/07/02 11:25:19;;;;;;;4.33;2.90;;;;;;;;;;1738802;82;22065;-73
2022/07/02 11:27:55;;;;;;;5.15;2.52;;;;;;;;;;1739677;82;21024;-73
2022/07/02 11:30:25;;;;;;;5.30;2.80;;;;;;;;;;1738656;82;21013;-72
2022/07/02 11:32:52;;;;;;;3.10;2.62;;;;;;;;;;1739601;82;21030;-73
2022/07/02 11:35:18;;;;;;;6.30;2.70;;;;;;;;;;1739626;82;21009;-72
2022/07/02 11:37:44;;;;;;;5.55;2.77;;;;;;;;;;1739638;82;21006;-73
2022/07/02 11:40:20;;;;;;;4.92;3.15;;;;;;;;;;1737931;82;21013;-72
2022/07/02 11:42:46;;;;;;;4.83;3.27;;;;;;;;;;1739451;82;21017;-73
2022/07/02 11:45:13;;;;;;;4.17;2.80;;;;;;;;;;1739703;82;21477;-72
2022/07/02 11:47:44;;;;;;;5.67;2.70;;;;;;;;;;1729187;82;21149;-72
2022/07/02 11:50:10;;;;;;;4.12;2.70;;;;;;;;;;1737616;82;21028;-73
2022/07/02 11:52:37;;;;;;;5.90;2.50;;;;;;;;;;1738650;82;21009;-73
2022/07/02 11:55:03;;;;;;;4.60;2.50;;;;;;;;;;1720903;82;21017;-74
2022/07/02 11:57:32;;;;;;;5.50;2.50;;;;;;;;;;1718096;83;21028;-73
2022/07/02 11:59:59;;;;;;;4.75;2.80;;;;;;;;;;1724942;82;21014;-73
2022/07/02 12:02:29;;;;;;;10.10;3.45;;;;;;;;;;1723973;82;21092;-72
2022/07/02 12:04:56;;;;;;;5.83;2.67;;;;;;;;;;1713816;82;21022;-73
2022/07/02 12:07:22;;;;;;;3.17;2.60;;;;;;;;;;1736847;82;21192;-73
2022/07/02 12:09:48;;;;;;;5.95;2.75;;;;;;;;;;1718112;83;21496;-72
2022/07/02 12:12:14;;;;;;;7.53;2.58;;;;;;;;;;1718109;83;21567;-71
2022/07/02 12:14:44;;;;;;;4.37;2.58;;;;;;;;;;1722109;82;21132;-69
2022/07/02 12:17:12;;;;;;;3.85;2.80;;;;;;;;;;1741244;82;21048;-70
2022/07/02 12:19:37;;;;;;;4.05;2.60;;;;;;;;;;1733557;82;21607;-69
2022/07/02 12:22:05;;;;;;;5.47;2.90;;;;;;;;;;1724777;82;21013;-69
2022/07/02 12:24:32;;;;;;;6.50;2.80;;;;;;;;;;1729719;82;21059;-70
2022/07/02 12:27:00;;;;;;;5.37;3.00;;;;;;;;;;1744489;82;21092;-69
2022/07/02 12:32:13;;;;;;;5.12;2.50;;;;;;;;;;1719970;82;21040;-69
2022/07/02 12:34:40;;;;;;;4.78;2.75;;;;;;;;;;1728190;82;21052;-71
2022/07/02 12:37:07;;;;;;;4.03;2.58;;;;;;;;;;1718053;83;21489;-71
2022/07/02 12:39:38;;;;;;;3.37;2.62;;;;;;;;;;1718113;83;21076;-71
2022/07/02 12:42:21;;;;;;;3.10;2.52;;;;;;;;;;1718229;83;21024;-70
2022/07/02 12:44:52;;;;;;;3.65;2.70;;;;;;;;;;1719644;82;21076;-69
2022/07/02 12:47:23;;;;;;;3.40;2.40;;;;;;;;;;1718909;83;21099;-71
2022/07/02 12:49:54;;;;;;;4.05;2.50;;;;;;;;;;1723972;82;21149;-70
2022/07/02 12:52:20;;;;;;;5.30;2.85;;;;;;;;;;1722206;83;21074;-71
2022/07/02 12:54:46;;;;;;;5.08;2.85;;;;;;;;;;1723923;83;21102;-72
2022/07/02 12:57:16;;;;;;;4.70;2.55;;;;;;;;;;1726130;82;21000;-71
2022/07/02 12:59:43;;;;;;;3.87;2.37;;;;;;;;;;1723980;83;21095;-70
2022/07/02 13:02:11;;;;;;;4.17;2.60;;;;;;;;;;1724148;82;21188;-71
2022/07/02 13:04:37;;;;;;;5.58;2.60;;;;;;;;;;1750712;82;21020;-71
2022/07/02 13:07:04;;;;;;;3.85;2.90;;;;;;;;;;1753322;81;21030;-72
2022/07/02 13:09:31;;;;;;;4.85;2.55;;;;;;;;;;1753507;81;21022;-71
2022/07/02 13:11:57;;;;;;;3.75;2.30;;;;;;;;;;1726381;82;21591;-72
2022/07/02 13:14:23;;;;;;;5.47;2.70;;;;;;;;;;1722055;83;21084;-69
2022/07/02 13:16:49;;;;;;;4.72;2.40;;;;;;;;;;1736713;82;21101;-72
2022/07/02 13:19:16;;;;;;;3.77;2.47;;;;;;;;;;1746959;81;21540;-70
2022/07/02 13:21:42;;;;;;;3.85;2.60;;;;;;;;;;1741661;82;21064;-70
2022/07/02 13:24:08;;;;;;;5.55;3.40;;;;;;;;;;1724308;81;21044;-70
2022/07/02 13:26:34;;;;;;;3.80;2.60;;;;;;;;;;1723477;83;21044;-70
2022/07/02 13:29:00;;;;;;;5.00;2.50;;;;;;;;;;1723919;83;21037;-70
2022/07/02 13:31:27;;;;;;;4.15;2.22;;;;;;;;;;1739610;82;21044;-70
2022/07/02 13:33:54;;;;;;;3.75;2.40;;;;;;;;;;1723498;83;21068;-70
2022/07/02 13:36:20;;;;;;;3.25;2.33;;;;;;;;;;1723802;83;21072;-70
2022/07/02 13:38:46;;;;;;;7.55;2.58;;;;;;;;;;1723767;83;20981;-70
2022/07/02 13:41:12;;;;;;;2.62;2.15;;;;;;;;;;1749039;82;21154;-70
2022/07/02 13:43:38;;;;;;;3.20;2.40;;;;;;;;;;1725168;82;21534;-69
2022/07/02 13:46:05;;;;;;;3.22;2.30;;;;;;;;;;1725019;82;21123;-71
2022/07/02 13:48:31;;;;;;;11.22;2.40;;;;;;;;;;1715099;81;21526;-70
2022/07/02 13:50:58;;;;;;;4.65;2.42;;;;;;;;;;1671546;86;21559;-71
2022/07/02 13:53:24;;;;;;;4.55;2.50;;;;;;;;;;1715366;82;21033;-69
2022/07/02 13:55:50;;;;;;;5.90;2.90;;;;;;;;;;1718490;83;21016;-70
2022/07/02 13:58:16;;;;;;;7.87;2.47;;;;;;;;;;1733072;82;21006;-71
2022/07/02 14:00:42;;;;;;;3.22;2.35;;;;;;;;;;1748140;82;21536;-71
2022/07/02 14:03:08;;;;;;;6.65;2.33;;;;;;;;;;1746907;82;21307;-70
2022/07/02 14:05:35;;;;;;;3.58;2.25;;;;;;;;;;1747673;82;21064;-70
2022/07/02 14:08:01;;;;;;;3.77;2.20;;;;;;;;;;1747670;82;21052;-70
2022/07/02 14:10:28;;;;;;;4.30;2.70;;;;;;;;;;1747669;82;21104;-71
2022/07/02 14:12:54;;;;;;;4.20;2.25;;;;;;;;;;1727280;82;21084;-70
2022/07/02 14:15:21;;;;;;;2.75;2.20;;;;;;;;;;1717853;83;21037;-71
2022/07/02 14:17:47;;;;;;;3.58;2.60;;;;;;;;;;1728907;82;21029;-70
2022/07/02 14:20:13;;;;;;;7.25;5.70;;;;;;;;;;1718344;82;21013;-70
2022/07/02 14:22:40;;;;;;;4.40;3.12;;;;;;;;;;1747509;82;21052;-69
2022/07/02 14:25:07;;;;;;;4.25;2.30;;;;;;;;;;1721090;82;21092;-69
2022/07/02 14:27:33;;;;;;;5.17;2.40;;;;;;;;;;1730844;82;21025;-70
2022/07/02 14:29:59;;;;;;;2.72;2.25;;;;;;;;;;1733973;82;21048;-71
2022/07/02 14:32:25;;;;;;;3.90;2.00;;;;;;;;;;1725065;82;21559;-70
2022/07/02 14:34:51;;;;;;;4.20;2.62;;;;;;;;;;1743267;82;21033;-70
2022/07/02 14:37:19;;;;;;;3.58;2.50;;;;;;;;;;1747873;82;21055;-71
2022/07/02 14:39:45;;;;;;;4.78;2.30;;;;;;;;;;1747788;82;21068;-70
2022/07/02 14:42:12;;;;;;;3.22;2.30;;;;;;;;;;1747699;82;21028;-72
2022/07/02 14:44:38;;;;;;;5.10;2.72;;;;;;;;;;1745442;82;21002;-70
2022/07/02 14:47:04;;;;;;;3.22;2.20;;;;;;;;;;1747832;82;21049;-71
2022/07/02 14:49:32;;;;;;;4.05;2.12;;;;;;;;;;1732518;81;21683;-71
2022/07/02 14:51:58;;;;;;;5.58;2.40;;;;;;;;;;1710029;84;21579;-71
2022/07/02 14:54:24;;;;;;;3.67;2.27;;;;;;;;;;1716242;82;21120;-71